METAR AND TAF INFORMATION
METAR FOR NTAA
ADDS - METARS form results

(0019 UTC 08 July 2020)
Data provider http://aviationweather.gov/metar/data/
 
METAR text: NTAA 080000Z 33006KT 310V010 9999 FEW023 29/22 Q1014 NOSIG
Conditions at: NTAA (TAHITI-FAAA POLY, WS) observed 0000 UTC 08 July 2020
Temperature: 29.0°C (84°F)
Dewpoint: 22.0°C (72°F) [RH = 66%]
Pressure (altimeter): 29.94 inches Hg (1014.0 mb)
Winds: from the NNW (330 degrees) at 7 MPH (6 knots; 3.1 m/s)
Visibility: 6 or more miles (10+ km)
Ceiling: at least 12,000 feet AGL
Clouds: few clouds at 2300 feet AGL
Weather: no significant weather observed at this time

METAR text: NTAA 072330Z 30004KT 9999 FEW023 29/21 Q1014 NOSIG
Conditions at: NTAA (TAHITI-FAAA POLY, WS) observed 2330 UTC 07 July 2020
Temperature: 29.0°C (84°F)
Dewpoint: 21.0°C (70°F) [RH = 62%]
Pressure (altimeter): 29.94 inches Hg (1014.0 mb)
Winds: from the WNW (300 degrees) at 5 MPH (4 knots; 2.1 m/s)
Visibility: 6 or more miles (10+ km)
Ceiling: at least 12,000 feet AGL
Clouds: few clouds at 2300 feet AGL
Weather: no significant weather observed at this time

Forecast for: NTAA (TAHITI-FAAA POLY, WS)
Text: TAF NTAA 072300Z 0800/0906 VRB05KT 9999 FEW025 BKN050
Forecast period: 0000 UTC 08 July 2020 to 0600 UTC 09 July 2020
Forecast type: FROM: standard forecast or significant change
Winds: variable direction winds at 6 MPH (5 knots; 2.6 m/s)
Visibility: 6 or more miles 10+ km)
Ceiling: 5000 feet AGL
Clouds: few clouds at 2500 feet AGL
broken clouds at 5000 feet AGL
Weather: no significant weather forecast for this period
Text: PROB30
Forecast period: 0000 to 1200 UTC 08 July 2020
Forecast type: TEMPORARY: The following changes expected for less than half the time period
Visibility: 1.86 miles (2.99 km)
Ceiling: 4000 feet AGL
Clouds: scattered clouds at 1800 feet AGL
broken clouds at 4000 feet AGL
Weather: SHRA  (rain showers)

 AIRPORT MAP

 RUNWAY INFORMATION
Runway 04 Runway length 11360 ft Runway width 148 ft
Runway elevation 5 ft Runway displaced threshold 1120 ft Runway heading 54
Runway 22 Runway length 11360 ft Runway width 148 ft
Runway elevation 5 ft Runway displaced threshold 390 ft Runway heading 234

 AIRPORT FREQUENCIES
Type APP Name APP Frequency 118.1 MHZ
Type ATIS Name ATIS Frequency 128.8 MHZ
Type GND Name GND Frequency 121.9 MHZ
Type TWR Name TWR Frequency 118.1 MHZ

 AIRPORT NEAR NAVIGATION AIDS
Type NDB Name Tahiti Faaa Frequency 305 KHZ
Type VOR-DME Name Tahiti Faaa Frequency 112900 KHZ